Etusivu
METAR-TAF:

METAR-TAF

Lentoasemat :

Cherokee County Airport

Canton, Georgia, Yhdysvallat

Leveyspiiri: 34-18-38N, Pituuspiiri: 084-25-26W, korkeus merenpinnasta: 372 m

Tämänhetkinen sää

Tämä raportti tehtiin 33 minuuttia sitten, kello 12.10 UTC
tyyntä
Lämpötila 6°C
Kosteus 100%
Ilmanpaine 1018 hPa
Näkyvyys: 8.0 km
Pilvistä 5000 ft:n korkeudessa
tihkusadetta

METAR: KCNI 241210Z AUTO 00000KT 5SM DZ OVC050 06/06 A3007 RMK AO2

Aika: 07:43 (12:43 UTC)


TAF: puuttuu

Säähavainnot ja -ennusteet yli 4000 lentoasemalta (METAR- ja TAF-raportit).

Käytössä olevat sääasemat on merkitty karttaan keltaisilla ja punaisilla pisteillä.

Aseta hiiri pisteen päälle nähdäksesi sääaseman nimen.

Klikkaa sitten nähdäksesi säähavainnot ja -ennusteet.

Kartan vaihtaminen: klikkaa mustalla rastilla varustettuja vihreitä pisteitä, niin voit zoomata sisään; viivalla varustettua vihreää pistettä, niin voit zoomata ulos tai vihreitä nuolia, niin pääset viereisille kartoille.


METAR-TAF: